x

Northwestern Hawaii Two - 190nm Nw Of Kauai Is, Hi (51101) Wave Buoy

5:50am - Thu 25th Aug 2016 All times are HST. -10 hours from GMT.

  • Sig Wave height 4.3ft
  • Swell Direction
  • Peak Period 7s
  • Average Period 7s
  • Wind
    11mph, 13mph gusts
  • Sea Temp 81°f
  • Air Temp 80°f
  • Sea Pressure 1017.5mb
  • Northwestern Hawaii Two - 190nm Nw Of Kauai Is, Hi
  • Northwestern Hawaii Two - 190nm Nw Of Kauai Is, Hi

More Historic Weather Station data

Upgrade to MSW Pro to gain access to the past 30 days of data for over 8000 Wavebouys and Weather Stations around the globe.

Join Pro

Comparision Forecast

View Surf forecast
   
Thu 08/25 5:50am 4.5ft 7s 7s 11 13 mph 1017.5mb 81f 80f
4:50am 4.5ft 7s 7s 7 9 mph 1017.2mb 81f 80f
3:50am 4.5ft 8s 6s 7
mph
1017.1mb 81f 80f
2:50am 4.5ft 7s 7s 7
mph
1017.3mb 81f 80f
1:50am 4.5ft 7s 7s 7 9 mph 1017.5mb 81f 80f
12:50am 4ft 8s 6s 7 9 mph 1017.9mb 81f 80f
Wed 08/24 11:50pm 4.5ft 7s 6s 9 11 mph 1017.8mb 81f 80f
10:50pm 4.5ft 7s 6s 11
mph
1017.4mb 81f 80f
9:50pm 4ft 10s 6s 9 11 mph 1017.1mb 81f 80f
8:50pm 3.5ft 8s 6s 9
mph
1016.5mb 81f 80f
7:50pm 4ft 9s 6s 9
mph
1015.9mb 81f 80f
6:50pm 4ft 10s 6s 7 9 mph 1015.2mb 81f 81f
4:50pm 4ft 7s 6s 9 11 mph 1014.3mb 81f 81f
3:50pm 4ft 10s 6s 9 11 mph 1014.2mb 81f 81f
2:50pm 3.5ft 8s 6s 9 11 mph 1014.3mb 81f 81f
1:50pm 4ft 11s 6s 11
mph
1014.3mb 82f 80f
12:50pm 3.5ft 9s 6s 9 11 mph 1014.7mb 82f 80f
11:50am 4ft 15s 6s 9 11 mph 1015.1mb 81f 80f
10:50am 4.5ft 11s 6s 9 11 mph 1015.2mb 81f 80f
9:50am 4ft 11s 6s 9 11 mph 1014.9mb 81f 80f
8:50am 4ft 6s 6s 9
mph
1014.3mb 81f 80f
7:50am 4ft 12s 6s 9 11 mph 1013.8mb 80f 80f
6:50am 4ft 6s 6s 9 11 mph 1013.2mb 80f 80f
5:50am 4ft 10s 6s 11 13 mph 1012.5mb 80f 80f
4:50am 4.5ft 11s 7s 9 11 mph 1012.2mb 80f 79f
3:50am 4.5ft 8s 6s 13
mph
1011.9mb 81f 79f
2:50am 4.5ft 11s 6s 11 13 mph 1012mb 81f 79f
1:50am 4.5ft 11s 6s 13 16 mph 1012.3mb 80f 80f
12:50am 4ft 11s 6s 13 16 mph 1012.9mb 81f 80f
Tue 08/23 11:50pm 4ft 10s 6s 9 11 mph 1013.1mb 81f 80f
10:50pm 4.5ft 10s 6s 11
mph
1013.3mb 80f 79f
9:50pm 4.5ft 10s 6s 9 11 mph 1012.9mb 80f 79f
8:50pm 4.5ft 10s 6s 11 13 mph 1012.5mb 80f 79f
7:50pm 4.5ft 8s 6s 9
mph
1012.5mb 80f 79f
6:50pm 4.5ft 10s 6s 7 9 mph 1012.1mb 80f 79f
5:50pm 4.5ft 11s 6s 9 11 mph 1011.7mb 80f 80f
4:50pm 4.5ft 8s 6s 11 13 mph 1011.8mb 80f 80f
3:50pm 4.5ft 10s 6s 9 11 mph 1011.7mb 80f 79f
2:50pm 4.5ft 7s 6s 11 13 mph 1011.8mb 80f 78f
1:50pm 4.5ft 8s 5s 16 18 mph 1012.2mb 80f 79f
12:50pm 4.5ft 9s 6s 18 20 mph 1012.3mb 80f 80f
11:50am 4.5ft 8s 6s 16 18 mph 1012.5mb 80f 80f
10:50am 4.5ft 10s 6s 16 18 mph 1012.7mb 80f 80f
9:50am 5ft 10s 6s 13 16 mph 1012.8mb 80f 80f
8:50am 4.5ft 10s 6s 18 20 mph 1012.6mb 80f 79f
7:50am 4.5ft 8s 6s 11 13 mph 1012.5mb 80f 79f
6:50am 4.5ft 13s 6s 11 13 mph 1012.2mb 80f 78f
5:50am 4.5ft 7s 6s 11 13 mph 1011.5mb 80f 79f
4:50am 4.5ft 10s 6s 11 13 mph 1011.4mb 80f 79f
3:50am 4.5ft 11s 6s 9 11 mph 1011.8mb 80f 79f
2:50am 4.5ft 8s 6s 11 16 mph 1012.2mb 80f 78f
1:50am 4.5ft 11s 6s 13 16 mph 1012.4mb 80f 79f
12:50am 4.5ft 8s 6s 13 16 mph 1012.8mb 80f 79f
Mon 08/22 11:50pm 4ft 8s 5s 13 16 mph 1013.3mb 80f 79f
10:50pm 4.5ft 8s 5s 13 18 mph 1013.7mb 80f 79f
9:50pm 4.5ft 8s 6s 13 16 mph 1013.5mb 80f 79f
8:50pm 4ft 8s 6s 16 18 mph 1013mb 80f 79f
7:50pm 4.5ft 8s 6s 13 18 mph 1012.7mb 80f 78f
6:50pm 4.5ft 8s 6s 11 13 mph 1012.7mb 80f 79f
5:50pm 4.5ft 9s 6s 11 13 mph 1012.6mb 81f 79f
4:50pm 4.5ft 8s 6s 11 13 mph 1012.7mb 81f 79f
3:50pm 4.5ft 8s 6s 11 13 mph 1012.9mb 81f 79f
2:50pm 4ft 9s 6s 9 11 mph 1013.3mb 81f 79f
1:50pm 4.5ft 8s 6s 9 11 mph 1013.8mb 81f 78f
12:50pm 4.5ft 8s 6s 11 16 mph 1014.1mb 81f 78f
11:50am 4.5ft 8s 6s 11 16 mph 1014.6mb 81f 79f
10:50am 4.5ft 9s 6s 11 13 mph 1015mb 81f 78f
9:50am 4.5ft 8s 6s 11 13 mph 1015.1mb 80f 78f
8:50am 5ft 7s 6s 16 20 mph 1014.8mb 80f 77f
7:50am 4.5ft 8s 6s 13 16 mph 1014.7mb 80f 78f
6:50am 5ft 8s 6s 11 18 mph 1014.6mb 80f 75f
5:50am 5ft 8s 6s 9 11 mph 1014.3mb 80f 77f
4:50am 4.5ft 8s 6s 11 13 mph 1014.3mb 80f 76f
3:50am 5ft 8s 6s 16 18 mph 1014.3mb 80f 76f
2:50am 4.5ft 8s 6s 9 13 mph 1014.7mb 81f 77f
1:50am 5ft 8s 6s 11 13 mph 1015.1mb 81f 78f
12:50am 4.5ft 8s 6s 13 16 mph 1015.4mb 81f 78f
Sun 08/21 11:50pm 5ft 8s 6s 16 18 mph 1015.8mb 81f 78f
10:50pm 5ft 8s 6s 16 18 mph 1015.7mb 81f 78f
9:50pm 5ft 8s 6s 18 20 mph 1015.5mb 81f 78f
8:50pm 5ft 8s 6s 13 18 mph 1015.3mb 81f 78f
7:50pm 5.5ft 8s 6s 16 20 mph 1014.9mb 81f 78f
6:50pm 5ft 8s 6s 13 16 mph 1014.8mb 81f 79f
4:50pm 5ft 8s 6s 16 18 mph 1014.7mb 81f 78f